createdAt,value
2023-05-19T00:01:17.811Z,99943.14
2023-05-19T00:03:59.175Z,99949.30
2023-05-19T00:06:29.327Z,99947.66
2023-05-19T00:09:03.820Z,99943.21
2023-05-19T00:11:30.987Z,99945.66
2023-05-19T00:13:59.063Z,99948.98
2023-05-19T00:16:26.982Z,99951.59
2023-05-19T00:18:54.520Z,99955.33
2023-05-19T00:21:21.545Z,99957.36
2023-05-19T00:23:48.631Z,99960.27
2023-05-19T00:26:15.758Z,99952.90
2023-05-19T00:28:46.378Z,99950.47
2023-05-19T00:31:13.478Z,99952.69
2023-05-19T00:33:40.532Z,99955.72
2023-05-19T00:36:08.017Z,99956.81
2023-05-19T00:38:36.050Z,99958.13
2023-05-19T00:41:04.042Z,99958.71
2023-05-19T00:43:31.003Z,99965.88
2023-05-19T00:45:58.539Z,99964.66
2023-05-19T00:48:25.857Z,99961.12
2023-05-19T00:51:02.118Z,99966.92
2023-05-19T00:53:29.602Z,99968.11
2023-05-19T00:55:56.637Z,99969.32
2023-05-19T00:58:24.010Z,99971.77
2023-05-19T01:00:51.127Z,99975.35
2023-05-19T01:03:20.836Z,99975.65
2023-05-19T01:05:47.987Z,99976.16
2023-05-19T01:08:15.121Z,99973.98
2023-05-19T01:10:42.280Z,99977.84
2023-05-19T01:13:09.720Z,99982.40
2023-05-19T01:15:41.764Z,99980.98
2023-05-19T01:18:12.347Z,99988.38
2023-05-19T01:20:46.561Z,99990.85
2023-05-19T01:23:26.025Z,99992.38
2023-05-19T01:26:31.512Z,99995.70
2023-05-19T01:29:08.261Z,99991.46
2023-05-19T01:31:37.227Z,99992.67
2023-05-19T01:34:06.208Z,99988.52
2023-05-19T01:36:33.094Z,99992.84
2023-05-19T01:39:01.315Z,99994.30
2023-05-19T01:41:29.654Z,99990.48
2023-05-19T01:43:56.969Z,99991.09
2023-05-19T01:46:24.172Z,99995.95
2023-05-19T01:48:51.594Z,99991.94
2023-05-19T01:51:20.095Z,99995.04
2023-05-19T01:53:47.000Z,99996.42
2023-05-19T01:56:17.228Z,99991.34
2023-05-19T01:58:49.024Z,99995.20
2023-05-19T02:01:46.108Z,99995.83
2023-05-19T02:04:44.085Z,99996.92
2023-05-19T02:07:15.857Z,100002.55
2023-05-19T02:09:59.475Z,100003.52
2023-05-19T02:12:29.187Z,100009.29
2023-05-19T02:15:07.546Z,100013.13
2023-05-19T02:17:36.534Z,100006.55
2023-05-19T02:20:04.861Z,100007.55
2023-05-19T02:22:32.072Z,100008.14
2023-05-19T02:24:59.235Z,100011.66
2023-05-19T02:27:26.597Z,100014.75
2023-05-19T02:29:53.635Z,100016.24
2023-05-19T02:32:21.146Z,100017.19
2023-05-19T02:34:48.575Z,100018.30
2023-05-19T02:37:15.825Z,100016.27
2023-05-19T02:39:43.588Z,100015.95
2023-05-19T02:42:11.121Z,100014.81
2023-05-19T02:44:38.012Z,100012.61
2023-05-19T02:47:05.171Z,100010.52
2023-05-19T02:49:36.133Z,100013.40
2023-05-19T02:52:04.384Z,100021.73
2023-05-19T02:54:31.792Z,100024.09
2023-05-19T02:56:58.809Z,100030.04
2023-05-19T02:59:25.900Z,100030.42
2023-05-19T03:01:55.601Z,100033.30
2023-05-19T03:04:22.725Z,100033.34
2023-05-19T03:06:50.293Z,100032.89
2023-05-19T03:09:17.447Z,100037.55
2023-05-19T03:11:44.386Z,100043.61
2023-05-19T03:14:12.309Z,100046.91
2023-05-19T03:16:41.471Z,100048.95
2023-05-19T03:19:09.132Z,100051.48
2023-05-19T03:21:36.299Z,100050.84
2023-05-19T03:24:03.423Z,100050.99
2023-05-19T03:26:30.598Z,100045.48
2023-05-19T03:28:57.777Z,100039.66
2023-05-19T03:31:24.925Z,100043.20
2023-05-19T03:33:52.492Z,100047.39
2023-05-19T03:36:19.962Z,100049.56
2023-05-19T03:38:47.240Z,100057.90
2023-05-19T03:41:14.268Z,100057.91
2023-05-19T03:43:41.332Z,100058.18
2023-05-19T03:46:09.176Z,100055.98
2023-05-19T03:48:42.017Z,100056.16
2023-05-19T03:51:36.877Z,100054.40
2023-05-19T03:54:17.327Z,100055.55
2023-05-19T03:56:44.256Z,100057.90
2023-05-19T03:59:12.568Z,100061.56
2023-05-19T04:01:39.724Z,100062.61
2023-05-19T04:04:06.922Z,100061.27
2023-05-19T04:06:34.237Z,100060.70
2023-05-19T04:09:02.648Z,100059.23
2023-05-19T04:16:34.124Z,100062.80
2023-05-19T04:19:01.209Z,100064.98
2023-05-19T04:21:28.263Z,100074.95
2023-05-19T04:23:55.303Z,100074.14
2023-05-19T04:26:22.783Z,100079.24
2023-05-19T04:28:50.119Z,100082.20
2023-05-19T04:31:17.713Z,100081.71
2023-05-19T04:33:44.955Z,100080.02
2023-05-19T04:36:13.958Z,100083.19
2023-05-19T04:38:41.083Z,100089.02
2023-05-19T04:41:12.281Z,100091.10
2023-05-19T04:43:42.038Z,100096.05
2023-05-19T04:46:13.422Z,100095.90
2023-05-19T04:48:41.666Z,100096.05
2023-05-19T04:51:08.913Z,100098.69
2023-05-19T04:53:36.805Z,100099.35
2023-05-19T04:56:05.809Z,100093.23
2023-05-19T04:58:33.573Z,100100.89
2023-05-19T05:01:00.832Z,100097.48
2023-05-19T05:03:28.310Z,100094.70
2023-05-19T05:05:56.828Z,100094.43
2023-05-19T05:08:23.928Z,100100.86
2023-05-19T05:10:52.664Z,100102.14
2023-05-19T05:13:24.083Z,100100.38
2023-05-19T05:15:52.487Z,100102.48
2023-05-19T05:18:19.988Z,100103.28
2023-05-19T05:20:48.448Z,100105.16
2023-05-19T05:23:16.949Z,100108.08
2023-05-19T05:25:47.228Z,100109.48
2023-05-19T05:28:14.927Z,100111.61
2023-05-19T05:30:42.199Z,100114.11
2023-05-19T05:33:09.609Z,100119.31
2023-05-19T05:35:38.758Z,100120.94
2023-05-19T05:38:06.914Z,100127.50
2023-05-19T05:40:34.551Z,100131.25
2023-05-19T05:43:03.046Z,100128.81
2023-05-19T05:45:32.425Z,100133.08
2023-05-19T05:48:01.030Z,100131.88
2023-05-19T05:50:28.721Z,100136.41
2023-05-19T05:52:56.119Z,100137.56
2023-05-19T05:55:24.472Z,100143.28
2023-05-19T05:57:52.053Z,100144.73
2023-05-19T06:00:19.891Z,100148.98
2023-05-19T06:02:51.495Z,100148.35
2023-05-19T06:05:19.510Z,100148.25
2023-05-19T06:07:47.302Z,100151.83
2023-05-19T06:10:18.384Z,100149.94
2023-05-19T06:12:45.708Z,100151.45
2023-05-19T06:15:12.871Z,100151.33
2023-05-19T06:17:39.971Z,100153.02
2023-05-19T06:20:08.864Z,100155.75
2023-05-19T06:22:36.583Z,100156.14
2023-05-19T06:25:04.196Z,100159.61
2023-05-19T06:27:33.300Z,100162.09
2023-05-19T06:30:02.436Z,100160.13
2023-05-19T06:32:31.981Z,100159.71
2023-05-19T06:35:00.629Z,100160.05
2023-05-19T06:37:27.636Z,100161.79
2023-05-19T06:39:55.583Z,100159.98
2023-05-19T06:42:23.101Z,100164.06
2023-05-19T06:44:57.114Z,100163.70
2023-05-19T06:51:49.985Z,100160.85
2023-05-19T06:54:17.234Z,100158.63
2023-05-19T06:56:45.329Z,100158.38
2023-05-19T06:59:13.790Z,100159.79
2023-05-19T07:01:40.808Z,100159.80
2023-05-19T07:04:08.602Z,100161.48
2023-05-19T07:06:35.888Z,100162.61
2023-05-19T07:09:05.291Z,100165.96
2023-05-19T07:11:32.929Z,100166.96
2023-05-19T07:13:59.926Z,100169.75
2023-05-19T07:16:28.079Z,100172.05
2023-05-19T07:18:55.105Z,100171.98
2023-05-19T07:21:22.031Z,100168.26
2023-05-19T07:23:49.318Z,100171.26
2023-05-19T07:26:16.174Z,100172.34
2023-05-19T07:28:43.861Z,100171.16
2023-05-19T07:31:10.814Z,100176.52
2023-05-19T07:33:37.694Z,100179.35
2023-05-19T07:36:04.774Z,100181.31
2023-05-19T07:38:34.634Z,100182.31
2023-05-19T07:41:02.475Z,100179.35
2023-05-19T07:43:29.464Z,100176.60
2023-05-19T07:45:56.564Z,100178.34
2023-05-19T07:48:25.881Z,100177.02
2023-05-19T07:50:53.002Z,100175.30
2023-05-19T07:53:20.246Z,100175.10
2023-05-19T07:55:47.218Z,100171.27
2023-05-19T07:58:14.382Z,100168.11
2023-05-19T08:00:43.425Z,100165.86
2023-05-19T08:03:10.406Z,100165.17
2023-05-19T08:05:37.814Z,100165.98
2023-05-19T08:08:05.213Z,100164.71
2023-05-19T08:10:32.212Z,100163.33
2023-05-19T08:12:59.435Z,100165.20
2023-05-19T08:15:26.619Z,100166.33
2023-05-19T08:17:53.654Z,100169.05
2023-05-19T08:20:22.625Z,100176.92
2023-05-19T08:22:49.499Z,100178.89
2023-05-19T08:25:16.644Z,100172.50
2023-05-19T08:27:43.545Z,100172.72
2023-05-19T08:30:11.158Z,100175.34
2023-05-19T08:32:38.396Z,100174.16
2023-05-19T08:35:05.577Z,100175.96
2023-05-19T08:37:34.124Z,100176.18
2023-05-19T08:40:01.537Z,100180.29
2023-05-19T08:42:28.584Z,100176.48
2023-05-19T08:44:55.737Z,100175.10
2023-05-19T08:47:23.093Z,100173.68
2023-05-19T08:49:52.716Z,100174.79
2023-05-19T08:52:32.238Z,100176.00
2023-05-19T08:55:04.822Z,100177.81
2023-05-19T08:57:33.001Z,100179.44
2023-05-19T09:00:14.524Z,100183.19
2023-05-19T09:02:50.606Z,100183.04
2023-05-19T09:05:28.387Z,100181.38
2023-05-19T09:07:55.512Z,100180.02
2023-05-19T09:10:22.870Z,100177.71
2023-05-19T09:12:50.524Z,100181.60
2023-05-19T09:15:19.324Z,100181.73
2023-05-19T09:17:48.305Z,100188.71
2023-05-19T09:20:16.958Z,100185.05
2023-05-19T09:22:48.480Z,100185.76
2023-05-19T09:25:33.810Z,100183.30
2023-05-19T09:28:01.057Z,100184.72
2023-05-19T09:30:27.951Z,100181.00
2023-05-19T09:32:54.875Z,100181.05
2023-05-19T09:35:21.863Z,100177.30
2023-05-19T09:37:48.764Z,100175.92
2023-05-19T09:40:15.940Z,100178.19
2023-05-19T09:42:44.371Z,100173.55
2023-05-19T09:45:11.796Z,100173.77
2023-05-19T09:47:41.365Z,100170.08
2023-05-19T09:50:10.059Z,100167.73
2023-05-19T09:52:42.814Z,100166.77
2023-05-19T09:55:11.118Z,100164.32
2023-05-19T09:57:38.750Z,100170.58
2023-05-19T10:00:17.859Z,100171.27
2023-05-19T10:02:46.645Z,100172.90
2023-05-19T10:05:20.200Z,100171.48
2023-05-19T10:07:48.746Z,100168.09
2023-05-19T10:10:16.003Z,100164.12
2023-05-19T10:12:43.265Z,100162.92
2023-05-19T10:15:11.933Z,100165.40
2023-05-19T10:17:40.670Z,100163.67
2023-05-19T10:20:14.903Z,100164.86
2023-05-19T10:22:43.143Z,100167.01
2023-05-19T10:25:10.981Z,100166.80
2023-05-19T10:27:40.832Z,100170.84
2023-05-19T10:30:15.036Z,100172.52
2023-05-19T10:32:44.609Z,100169.57
2023-05-19T10:35:47.278Z,100166.66
2023-05-19T10:38:48.425Z,100165.58
2023-05-19T10:41:43.996Z,100169.49
2023-05-19T10:44:39.771Z,100163.68
2023-05-19T10:47:08.052Z,100163.28
2023-05-19T10:49:35.997Z,100161.25
2023-05-19T10:52:03.033Z,100162.82
2023-05-19T10:54:43.687Z,100160.77
2023-05-19T10:57:17.451Z,100162.85
2023-05-19T10:59:47.412Z,100161.01
2023-05-19T11:02:36.885Z,100157.69
2023-05-19T11:05:10.928Z,100159.45
2023-05-19T11:07:38.010Z,100160.79
2023-05-19T11:10:08.494Z,100163.27
2023-05-19T11:12:45.418Z,100166.32
2023-05-19T11:15:16.057Z,100164.46
2023-05-19T11:17:45.766Z,100170.76
2023-05-19T11:20:26.441Z,100180.73
2023-05-19T11:23:15.933Z,100179.70
2023-05-19T11:25:47.140Z,100183.58
2023-05-19T11:28:25.899Z,100181.56
2023-05-19T11:30:54.712Z,100179.58
2023-05-19T11:33:21.799Z,100181.99
2023-05-19T11:35:50.518Z,100184.03
2023-05-19T11:38:19.028Z,100177.09
2023-05-19T11:40:47.370Z,100181.48
2023-05-19T11:43:14.411Z,100182.54
2023-05-19T11:45:41.645Z,100182.70
2023-05-19T11:48:12.807Z,100186.70
2023-05-19T11:50:44.212Z,100183.84
2023-05-19T11:53:13.306Z,100186.52
2023-05-19T11:55:46.272Z,100190.61
2023-05-19T11:58:13.642Z,100189.25
2023-05-19T12:00:41.659Z,100193.55
2023-05-19T12:03:09.440Z,100197.11
2023-05-19T12:05:41.817Z,100199.98
2023-05-19T12:08:11.166Z,100200.53
2023-05-19T12:10:38.636Z,100197.45
2023-05-19T12:13:08.310Z,100195.16
2023-05-19T12:15:35.633Z,100192.19
2023-05-19T12:18:03.188Z,100188.54
2023-05-19T12:20:32.728Z,100188.86
2023-05-19T12:23:00.389Z,100187.81
2023-05-19T12:25:28.324Z,100184.30
2023-05-19T12:28:04.965Z,100181.14
2023-05-19T12:30:33.095Z,100177.98
2023-05-19T12:33:01.839Z,100180.11
2023-05-19T12:35:34.364Z,100178.48
2023-05-19T12:38:05.366Z,100180.52
2023-05-19T12:40:36.874Z,100184.67
2023-05-19T12:43:04.214Z,100182.80
2023-05-19T12:45:35.625Z,100180.70
2023-05-19T12:48:06.972Z,100177.74
2023-05-19T12:50:34.729Z,100181.10
2023-05-19T12:53:02.202Z,100181.73
2023-05-19T12:55:30.098Z,100184.39
2023-05-19T12:57:58.472Z,100185.92
2023-05-19T13:00:28.702Z,100181.50
2023-05-19T13:03:00.114Z,100177.13
2023-05-19T13:05:36.861Z,100175.57
2023-05-19T13:08:08.666Z,100171.82
2023-05-19T13:10:37.418Z,100172.38
2023-05-19T13:13:04.728Z,100171.15
2023-05-19T13:15:34.562Z,100172.61
2023-05-19T13:18:03.269Z,100169.33
2023-05-19T13:20:31.157Z,100165.13
2023-05-19T13:22:58.841Z,100164.86
2023-05-19T13:25:27.010Z,100165.62
2023-05-19T13:27:54.879Z,100162.95
2023-05-19T13:30:22.121Z,100163.09
2023-05-19T13:32:49.225Z,100163.45
2023-05-19T13:35:16.447Z,100158.50
2023-05-19T13:37:43.606Z,100156.01
2023-05-19T13:40:11.431Z,100156.39
2023-05-19T13:42:38.528Z,100152.85
2023-05-19T13:45:06.211Z,100156.43
2023-05-19T13:47:33.410Z,100153.77
2023-05-19T13:50:00.388Z,100152.75
2023-05-19T13:52:29.814Z,100149.16
2023-05-19T13:54:57.634Z,100150.56
2023-05-19T13:57:27.907Z,100150.92
2023-05-19T14:00:02.532Z,100152.26
2023-05-19T14:02:39.842Z,100152.73
2023-05-19T14:05:08.325Z,100152.98
2023-05-19T14:07:35.698Z,100151.48
2023-05-19T14:10:04.161Z,100151.73
2023-05-19T14:12:40.396Z,100153.86
2023-05-19T14:15:11.553Z,100153.59
2023-05-19T14:17:39.411Z,100152.58
2023-05-19T14:20:07.836Z,100148.22
2023-05-19T14:22:34.740Z,100149.94
2023-05-19T14:25:02.421Z,100153.82
2023-05-19T14:27:29.704Z,100154.09
2023-05-19T14:29:56.718Z,100146.52
2023-05-19T14:32:23.751Z,100147.08
2023-05-19T14:34:53.830Z,100149.48
2023-05-19T14:37:21.090Z,100145.80
2023-05-19T14:39:48.141Z,100147.50
2023-05-19T14:42:15.067Z,100146.48
2023-05-19T14:44:42.148Z,100149.01
2023-05-19T14:47:11.439Z,100155.12
2023-05-19T14:49:39.853Z,100159.95
2023-05-19T14:52:08.534Z,100160.25
2023-05-19T14:54:35.586Z,100159.28
2023-05-19T14:57:03.269Z,100161.33
2023-05-19T14:59:30.153Z,100156.05
2023-05-19T15:01:57.072Z,100158.84
2023-05-19T15:04:24.232Z,100160.10
2023-05-19T15:07:05.680Z,100159.14
2023-05-19T15:09:37.059Z,100157.35
2023-05-19T15:12:04.074Z,100154.33
2023-05-19T15:14:31.540Z,100154.92
2023-05-19T15:16:59.175Z,100157.98
2023-05-19T15:19:26.436Z,100152.83
2023-05-19T15:21:53.764Z,100153.35
2023-05-19T15:24:20.774Z,100151.33
2023-05-19T15:26:47.751Z,100147.21
2023-05-19T15:29:14.807Z,100147.67
2023-05-19T15:31:42.145Z,100150.06
2023-05-19T15:34:09.333Z,100149.25
2023-05-19T15:36:36.479Z,100151.14
2023-05-19T15:39:04.078Z,100143.59
2023-05-19T15:41:30.966Z,100147.20
2023-05-19T15:44:00.410Z,100145.55
2023-05-19T15:46:27.771Z,100144.17
2023-05-19T15:48:54.963Z,100144.60
2023-05-19T15:51:22.213Z,100142.25
2023-05-19T15:53:49.442Z,100141.06
2023-05-19T15:56:16.703Z,100142.30
2023-05-19T15:58:43.758Z,100142.80
2023-05-19T16:01:10.970Z,100137.40
2023-05-19T16:03:38.043Z,100144.45
2023-05-19T16:06:05.222Z,100142.63
2023-05-19T16:08:32.305Z,100147.08
2023-05-19T16:10:59.341Z,100152.62
2023-05-19T16:13:26.491Z,100154.98
2023-05-19T16:15:53.451Z,100153.95
2023-05-19T16:18:20.901Z,100156.05
2023-05-19T16:20:47.799Z,100155.82
2023-05-19T16:23:14.915Z,100155.38
2023-05-19T16:25:42.209Z,100153.92
2023-05-19T16:28:09.217Z,100161.70
2023-05-19T16:30:36.710Z,100164.08
2023-05-19T16:33:04.121Z,100166.10
2023-05-19T16:35:31.273Z,100162.46
2023-05-19T16:37:58.459Z,100163.92
2023-05-19T16:40:26.238Z,100168.05
2023-05-19T16:42:53.751Z,100171.80
2023-05-19T16:45:20.731Z,100175.81
2023-05-19T16:47:47.718Z,100183.75
2023-05-19T16:50:14.979Z,100186.19
2023-05-19T16:52:42.320Z,100187.29
2023-05-19T16:55:09.992Z,100188.81
2023-05-19T16:57:37.045Z,100195.73
2023-05-19T17:00:04.835Z,100198.16
2023-05-19T17:02:31.988Z,100199.54
2023-05-19T17:04:59.200Z,100201.27
2023-05-19T17:07:27.969Z,100198.09
2023-05-19T17:09:56.074Z,100200.67
2023-05-19T17:12:23.460Z,100199.89
2023-05-19T17:14:52.180Z,100205.59
2023-05-19T17:17:19.320Z,100206.20
2023-05-19T17:19:47.016Z,100209.83
2023-05-19T17:22:14.443Z,100208.81
2023-05-19T17:24:42.098Z,100206.95
2023-05-19T17:27:09.155Z,100208.05
2023-05-19T17:29:36.907Z,100205.04
2023-05-19T17:32:04.631Z,100207.86
2023-05-19T17:34:31.755Z,100209.48
2023-05-19T17:36:58.802Z,100209.53
2023-05-19T17:39:25.691Z,100215.63
2023-05-19T17:41:52.603Z,100217.65
2023-05-19T17:44:19.756Z,100212.85
2023-05-19T17:46:46.696Z,100211.91
2023-05-19T17:49:14.036Z,100217.53
2023-05-19T17:51:41.311Z,100221.60
2023-05-19T17:54:08.787Z,100229.50
2023-05-19T17:56:35.743Z,100231.10
2023-05-19T17:59:03.245Z,100234.73
2023-05-19T18:01:30.847Z,100233.88
2023-05-19T18:03:58.538Z,100235.98
2023-05-19T18:06:25.698Z,100238.39
2023-05-19T18:08:53.572Z,100239.36
2023-05-19T18:11:21.674Z,100236.09
2023-05-19T18:13:48.744Z,100239.66
2023-05-19T18:16:15.766Z,100237.28
2023-05-19T18:18:44.718Z,100243.20
2023-05-19T18:21:14.464Z,100242.05
2023-05-19T18:23:41.587Z,100240.93
2023-05-19T18:26:08.678Z,100237.19
2023-05-19T18:28:35.732Z,100237.23
2023-05-19T18:31:04.019Z,100241.35
2023-05-19T18:33:31.319Z,100241.98
2023-05-19T18:35:58.631Z,100245.24
2023-05-19T18:38:25.684Z,100243.55
2023-05-19T18:40:52.841Z,100245.02
2023-05-19T18:43:19.706Z,100246.75
2023-05-19T18:45:47.384Z,100246.35
2023-05-19T18:48:15.809Z,100251.39
2023-05-19T18:50:44.733Z,100247.84
2023-05-19T18:53:12.002Z,100250.78
2023-05-19T18:55:38.920Z,100247.20
2023-05-19T18:58:06.350Z,100249.45
2023-05-19T19:00:35.680Z,100246.80
2023-05-19T19:03:03.013Z,100245.36
2023-05-19T19:05:30.331Z,100244.93
2023-05-19T19:07:57.704Z,100247.21
2023-05-19T19:10:24.681Z,100248.11
2023-05-19T19:12:51.608Z,100250.29
2023-05-19T19:15:18.661Z,100251.56
2023-05-19T19:17:45.942Z,100255.27
2023-05-19T19:20:13.626Z,100249.92
2023-05-19T19:22:40.743Z,100253.05
2023-05-19T19:25:08.310Z,100255.48
2023-05-19T19:27:35.790Z,100255.09
2023-05-19T19:30:03.010Z,100250.98
2023-05-19T19:32:31.667Z,100253.05
2023-05-19T19:34:58.872Z,100252.65
2023-05-19T19:37:25.857Z,100255.25
2023-05-19T19:39:52.793Z,100254.83
2023-05-19T19:42:19.935Z,100253.93
2023-05-19T19:44:47.196Z,100258.34
2023-05-19T19:47:14.254Z,100255.67
2023-05-19T19:49:41.606Z,100257.23
2023-05-19T19:52:08.584Z,100258.09
2023-05-19T19:54:35.720Z,100255.61
2023-05-19T19:57:02.629Z,100263.52
2023-05-19T19:59:30.565Z,100267.09
2023-05-19T20:01:57.675Z,100268.13
2023-05-19T20:04:25.249Z,100267.18
2023-05-19T20:06:52.618Z,100265.91
2023-05-19T20:09:19.570Z,100262.23
2023-05-19T20:11:46.412Z,100261.26
2023-05-19T20:14:13.573Z,100264.70
2023-05-19T20:16:41.324Z,100265.54
2023-05-19T20:19:09.370Z,100263.20
2023-05-19T20:21:36.683Z,100262.59
2023-05-19T20:24:03.884Z,100264.98
2023-05-19T20:26:31.811Z,100265.73
2023-05-19T20:28:59.179Z,100266.81
2023-05-19T20:31:26.197Z,100266.61
2023-05-19T20:33:53.319Z,100270.65
2023-05-19T20:36:20.438Z,100270.39
2023-05-19T20:38:48.215Z,100267.05
2023-05-19T20:41:15.254Z,100266.52
2023-05-19T20:43:42.417Z,100266.77
2023-05-19T20:46:09.630Z,100268.44
2023-05-19T20:48:36.742Z,100269.73
2023-05-19T20:51:04.011Z,100271.44
2023-05-19T20:53:31.142Z,100271.18
2023-05-19T20:55:58.201Z,100270.67
2023-05-19T20:58:30.404Z,100270.89
2023-05-19T21:00:58.150Z,100273.07
2023-05-19T21:03:27.133Z,100274.04
2023-05-19T21:05:55.221Z,100274.48
2023-05-19T21:08:22.790Z,100271.38
2023-05-19T21:10:49.834Z,100271.98
2023-05-19T21:13:18.111Z,100275.91
2023-05-19T21:15:45.378Z,100276.77
2023-05-19T21:18:12.677Z,100278.08
2023-05-19T21:20:39.891Z,100278.52
2023-05-19T21:23:06.958Z,100279.67
2023-05-19T21:25:34.002Z,100279.26
2023-05-19T21:28:01.369Z,100279.48
2023-05-19T21:30:28.538Z,100276.57
2023-05-19T21:32:55.900Z,100277.86
2023-05-19T21:35:23.134Z,100279.15
2023-05-19T21:37:50.187Z,100282.48
2023-05-19T21:40:17.168Z,100286.12
2023-05-19T21:42:44.194Z,100285.20
2023-05-19T21:45:11.700Z,100282.70
2023-05-19T21:47:38.918Z,100283.36
2023-05-19T21:50:06.984Z,100286.47
2023-05-19T21:52:36.350Z,100290.48
2023-05-19T21:55:03.450Z,100288.13
2023-05-19T21:57:30.468Z,100293.31
2023-05-19T21:59:57.567Z,100291.98
2023-05-19T22:02:24.618Z,100290.19
2023-05-19T22:04:51.974Z,100292.78
2023-05-19T22:07:26.905Z,100291.04
2023-05-19T22:09:54.266Z,100290.19
2023-05-19T22:12:21.202Z,100290.08
2023-05-19T22:14:48.221Z,100289.61
2023-05-19T22:17:15.734Z,100290.58
2023-05-19T22:19:42.802Z,100294.91
2023-05-19T22:22:14.408Z,100292.17
2023-05-19T22:24:42.123Z,100294.30
2023-05-19T22:27:08.987Z,100293.77
2023-05-19T22:29:38.946Z,100292.70
2023-05-19T22:32:07.819Z,100292.02
2023-05-19T22:34:34.772Z,100289.05
2023-05-19T22:37:02.095Z,100290.31
2023-05-19T22:39:28.979Z,100289.63
2023-05-19T22:41:55.840Z,100291.95
2023-05-19T22:44:22.716Z,100288.97
2023-05-19T22:46:49.694Z,100289.41
2023-05-19T22:49:16.764Z,100288.48
2023-05-19T22:51:43.799Z,100284.88
2023-05-19T22:54:10.953Z,100285.89
2023-05-19T22:56:38.008Z,100285.16
2023-05-19T22:59:05.158Z,100289.71
2023-05-19T23:01:32.060Z,100285.21
2023-05-19T23:03:59.207Z,100287.69
2023-05-19T23:06:26.230Z,100290.49
2023-05-19T23:09:03.920Z,100294.67
2023-05-19T23:11:30.976Z,100296.25
2023-05-19T23:13:57.921Z,100296.25
2023-05-19T23:16:24.917Z,100296.25
2023-05-19T23:18:51.950Z,100296.25
2023-05-19T23:21:19.393Z,100292.42
2023-05-19T23:23:46.574Z,100289.98
2023-05-19T23:26:13.714Z,100289.94
2023-05-19T23:29:03.676Z,100288.90
2023-05-19T23:31:30.806Z,100289.30
2023-05-19T23:33:57.989Z,100291.41
2023-05-19T23:36:25.075Z,100293.69
2023-05-19T23:38:51.941Z,100296.11
2023-05-19T23:41:19.080Z,100296.27
2023-05-19T23:43:45.952Z,100293.56
2023-05-19T23:46:13.087Z,100294.75
2023-05-19T23:48:40.227Z,100294.00
2023-05-19T23:51:07.273Z,100290.77
2023-05-19T23:53:34.339Z,100289.31
2023-05-19T23:56:01.481Z,100286.59
2023-05-19T23:58:28.384Z,100287.03
